Time;durP1;ratioP1;P1;durP2;ratioP2;P2;SDS_P1;SDS_P2;PMS_P1;PMS_P2;Temp;Humidity;BMP_temperature;BMP_pressure;BME280_temperature;BME280_humidity;BME280_pressure;Samples;Min_cycle;Max_cycle;Signal;HPM_P1;HPM_P2
2023/02/20 00:01:23;;;;;;;4.50;3.60;;;;;;;14.54;49.51;99879.34;7005023;28;20206;-83
2023/02/20 00:04:48;;;;;;;5.40;3.43;;;;;;;14.06;50.90;99889.38;7004855;28;20206;-83
2023/02/20 00:08:09;;;;;;;6.83;4.67;;;;;;;13.96;50.77;99879.91;7004187;28;20221;-83
2023/02/20 00:11:31;;;;;;;6.53;3.80;;;;;;;13.73;51.61;99885.63;7005425;28;20209;-84
2023/02/20 00:14:52;;;;;;;12.90;3.70;;;;;;;14.17;50.64;99890.66;7004524;28;20305;-83
2023/02/20 00:18:14;;;;;;;5.80;3.43;;;;;;;14.11;50.66;99884.16;7003507;28;20310;-83
2023/02/20 00:21:37;;;;;;;5.90;3.77;;;;;;;14.40;49.81;99881.19;7004665;28;20805;-83
2023/02/20 00:24:58;;;;;;;6.00;3.90;;;;;;;13.66;51.33;99878.47;7004711;28;20297;-83
2023/02/20 00:28:20;;;;;;;7.50;3.80;;;;;;;13.31;51.68;99836.16;7021062;28;20327;-83
2023/02/20 00:31:41;;;;;;;5.53;3.77;;;;;;;13.73;51.03;99853.09;7011791;28;20660;-83
2023/02/20 00:35:03;;;;;;;7.10;3.50;;;;;;;13.93;50.83;99874.91;7009938;28;20360;-82
2023/02/20 00:38:25;;;;;;;7.13;3.70;;;;;;;13.44;51.06;99831.66;7008618;28;20328;-82
2023/02/20 00:41:47;;;;;;;5.50;3.33;;;;;;;13.79;50.60;99862.28;7008573;28;20222;-82
2023/02/20 00:45:09;;;;;;;6.07;3.67;;;;;;;13.73;51.20;99885.63;7007983;28;20213;-83
2023/02/20 00:48:31;;;;;;;6.97;4.10;;;;;;;13.69;51.81;99910.63;7007260;28;20221;-84
2023/02/20 00:51:52;;;;;;;5.47;3.97;;;;;;;13.92;50.99;99919.34;7006611;28;20261;-83
2023/02/20 00:55:15;;;;;;;5.63;3.90;;;;;;;13.71;51.52;99914.81;7006906;28;20296;-82
2023/02/20 00:58:37;;;;;;;5.13;3.50;;;;;;;13.88;51.50;99899.06;7005582;28;20275;-83
2023/02/20 01:01:58;;;;;;;6.33;3.80;;;;;;;13.52;52.29;99906.53;7005736;28;20809;-83
2023/02/20 01:05:20;;;;;;;5.97;3.83;;;;;;;13.44;51.59;99879.56;7005430;28;20293;-83
2023/02/20 01:08:41;;;;;;;4.93;3.80;;;;;;;13.57;51.84;99907.59;7003389;28;20293;-83
2023/02/20 01:12:04;;;;;;;4.13;3.40;;;;;;;13.58;51.51;99905.75;6999890;28;20269;-83
2023/02/20 01:15:26;;;;;;;9.33;3.90;;;;;;;13.76;51.51;99901.47;7004536;28;20343;-83
2023/02/20 01:18:49;;;;;;;6.37;3.80;;;;;;;13.76;51.52;99889.81;7003462;28;20231;-83
2023/02/20 01:22:11;;;;;;;7.47;4.33;;;;;;;13.81;50.33;99865.66;7003908;28;20358;-84
2023/02/20 01:25:32;;;;;;;10.00;4.10;;;;;;;13.48;50.68;99846.50;7003647;28;20273;-83
2023/02/20 01:28:55;;;;;;;19.77;9.63;;;;;;;13.55;51.18;99866.34;7003800;28;20267;-83
2023/02/20 01:32:17;;;;;;;9.23;4.30;;;;;;;13.31;51.56;99880.34;7006336;28;20256;-83
2023/02/20 01:35:38;;;;;;;5.87;3.57;;;;;;;13.30;51.40;99880.50;7002507;28;20302;-83
2023/02/20 01:39:00;;;;;;;6.10;3.57;;;;;;;13.67;50.44;99867.47;7002507;28;20253;-83
2023/02/20 01:42:24;;;;;;;7.43;4.00;;;;;;;13.14;51.39;99843.72;7001410;28;20593;-83
2023/02/20 01:45:47;;;;;;;5.03;3.67;;;;;;;13.13;51.27;99874.56;7002786;28;20209;-83
2023/02/20 01:49:11;;;;;;;7.17;4.23;;;;;;;13.48;50.92;99859.19;7002498;28;20251;-83
2023/02/20 01:52:34;;;;;;;6.87;3.60;;;;;;;13.50;50.38;99857.97;7003297;28;20348;-83
2023/02/20 01:55:59;;;;;;;8.80;4.17;;;;;;;12.94;52.02;99871.63;7002239;28;20210;-83
2023/02/20 01:59:21;;;;;;;8.43;4.00;;;;;;;12.89;52.32;99872.22;7002900;28;20234;-83
2023/02/20 02:02:48;;;;;;;4.30;3.67;;;;;;;13.10;51.46;99879.53;6986081;28;20690;-83
2023/02/20 02:06:12;;;;;;;5.47;3.53;;;;;;;13.14;51.44;99873.53;6979927;28;20615;-83
2023/02/20 02:09:38;;;;;;;4.00;3.60;;;;;;;12.90;51.44;99865.78;6979649;28;20622;-82
2023/02/20 02:13:00;;;;;;;5.67;3.40;;;;;;;12.73;51.16;99814.78;6979960;28;20300;-83
2023/02/20 02:16:27;;;;;;;8.57;3.30;;;;;;;13.49;49.74;99863.56;6979174;28;20289;-83
2023/02/20 02:20:42;;;;;;;5.30;3.40;;;;;;;13.08;50.53;99857.19;6980081;28;20317;-83
2023/02/20 02:24:50;;;;;;;4.73;3.60;;;;;;;12.68;51.31;99847.03;6979881;28;20301;-83
2023/02/20 02:28:48;;;;;;;3.43;3.13;;;;;;;12.99;50.36;99851.09;6979375;28;20313;-84
2023/02/20 02:32:30;;;;;;;3.73;3.30;;;;;;;12.86;50.68;99864.47;6979483;28;20300;-83
2023/02/20 02:36:02;;;;;;;6.97;3.13;;;;;;;13.11;50.48;99860.34;6985060;28;20268;-83
2023/02/20 02:39:31;;;;;;;5.53;3.80;;;;;;;13.31;49.74;99838.84;6993855;28;20324;-83
2023/02/20 02:43:00;;;;;;;6.10;3.60;;;;;;;13.19;50.02;99867.50;6987429;28;20236;-82
2023/02/20 02:46:27;;;;;;;7.90;3.77;;;;;;;13.39;49.73;99853.09;6985357;28;20280;-83
2023/02/20 02:49:53;;;;;;;8.47;4.33;;;;;;;13.32;50.11;99848.66;6985295;28;20272;-83
2023/02/20 02:53:16;;;;;;;5.07;3.50;;;;;;;12.93;50.81;99859.13;6985199;28;20285;-82
2023/02/20 02:56:40;;;;;;;9.67;3.80;;;;;;;13.09;50.83;99865.13;6982755;28;20266;-82
2023/02/20 03:00:06;;;;;;;6.37;3.40;;;;;;;13.15;50.55;99847.28;6982823;28;20321;-83
2023/02/20 03:03:30;;;;;;;5.03;3.40;;;;;;;13.37;49.86;99841.63;6982752;28;20682;-82
2023/02/20 03:06:56;;;;;;;6.73;3.57;;;;;;;13.46;49.76;99843.13;6980877;28;20245;-82
2023/02/20 03:10:30;;;;;;;7.10;3.23;;;;;;;13.41;50.21;99842.06;6981512;28;20289;-82
2023/02/20 03:17:36;;;;;;;7.27;3.37;;;;;;;13.01;51.39;99840.06;6979136;28;20222;-83
2023/02/20 03:21:01;;;;;;;6.33;3.50;;;;;;;13.55;50.24;99841.94;6980211;28;20283;-82
2023/02/20 03:24:23;;;;;;;3.50;3.20;;;;;;;13.60;50.19;99830.50;6979563;28;20631;-82
2023/02/20 03:27:49;;;;;;;4.23;3.13;;;;;;;13.56;50.50;99835.47;6978575;28;20380;-82
2023/02/20 03:31:12;;;;;;;6.83;3.80;;;;;;;13.36;50.72;99837.25;6978755;28;20255;-82
2023/02/20 03:45:36;;;;;;;6.13;3.63;;;;;;;13.39;51.09;99846.84;6977732;28;20268;-81
2023/02/20 03:49:00;;;;;;;6.60;3.77;;;;;;;12.91;52.16;99861.19;6977715;28;20352;-83
2023/02/20 03:52:22;;;;;;;5.57;3.27;;;;;;;13.52;50.13;99857.78;6977960;28;20289;-83
2023/02/20 03:55:45;;;;;;;6.57;3.87;;;;;;;13.10;51.16;99855.97;6977117;28;20260;-81
2023/02/20 03:59:12;;;;;;;7.70;3.67;;;;;;;13.17;51.00;99842.50;6977004;28;20760;-82
2023/02/20 04:02:40;;;;;;;10.60;3.37;;;;;;;13.02;51.33;99841.75;6977875;28;20299;-83
2023/02/20 04:06:04;;;;;;;7.33;3.23;;;;;;;12.85;51.40;99834.88;6976615;28;20198;-84
2023/02/20 04:09:28;;;;;;;6.03;3.30;;;;;;;13.13;50.80;99836.66;6977187;28;20265;-83
2023/02/20 04:12:51;;;;;;;4.47;3.30;;;;;;;13.02;51.00;99844.44;6976998;28;20332;-83
2023/02/20 04:16:14;;;;;;;6.03;3.00;;;;;;;12.94;50.91;99842.72;6976533;28;20271;-82
2023/02/20 04:19:36;;;;;;;6.47;3.40;;;;;;;12.77;51.23;99824.22;6977255;28;20368;-83
2023/02/20 04:23:01;;;;;;;6.50;3.53;;;;;;;13.09;50.36;99805.56;6977405;28;20293;-83
2023/02/20 04:26:23;;;;;;;7.07;3.40;;;;;;;13.24;50.12;99819.00;6975028;28;20339;-83
2023/02/20 04:29:44;;;;;;;4.27;3.63;;;;;;;13.55;49.21;99827.53;6976421;28;20230;-83
2023/02/20 04:33:06;;;;;;;5.63;3.67;;;;;;;13.61;49.53;99834.88;6976875;28;20657;-82
2023/02/20 04:36:29;;;;;;;10.53;3.93;;;;;;;13.36;49.40;99791.19;6975955;28;20206;-83
2023/02/20 04:39:50;;;;;;;5.50;3.67;;;;;;;13.13;50.49;99817.69;6976533;28;20230;-82
2023/02/20 04:43:12;;;;;;;6.33;3.30;;;;;;;13.10;50.64;99819.97;6977730;28;20785;-83
2023/02/20 04:46:33;;;;;;;5.80;3.50;;;;;;;12.76;51.55;99827.97;6989909;28;20237;-81
2023/02/20 04:49:55;;;;;;;8.83;3.20;;;;;;;12.80;51.49;99831.97;6985785;28;20674;-82
2023/02/20 04:53:18;;;;;;;8.80;4.10;;;;;;;12.70;51.67;99824.13;6982889;28;20266;-82
2023/02/20 04:56:39;;;;;;;4.87;3.30;;;;;;;12.53;52.17;99830.00;6981484;28;20225;-81
2023/02/20 05:00:01;;;;;;;7.10;3.50;;;;;;;12.28;52.60;99844.94;6981758;28;20294;-81
2023/02/20 05:03:22;;;;;;;6.53;3.53;;;;;;;12.59;51.64;99819.28;6981090;28;20301;-82
2023/02/20 05:06:47;;;;;;;7.13;3.53;;;;;;;13.05;50.92;99844.06;6980460;28;20209;-82
2023/02/20 05:10:13;;;;;;;5.33;3.67;;;;;;;12.96;50.42;99839.81;6979897;28;20289;-82
2023/02/20 05:13:34;;;;;;;9.83;4.20;;;;;;;12.81;50.81;99822.81;6979333;28;20275;-83
2023/02/20 05:16:56;;;;;;;7.73;4.10;;;;;;;12.76;50.24;99800.88;6977778;28;20297;-82
2023/02/20 05:20:18;;;;;;;8.67;3.57;;;;;;;13.03;49.99;99822.59;6978012;28;20313;-82
2023/02/20 05:23:39;;;;;;;5.03;3.47;;;;;;;12.52;50.41;99814.81;6978282;28;20275;-82
2023/02/20 05:27:02;;;;;;;5.73;3.30;;;;;;;12.59;50.96;99845.47;6977447;28;20226;-83
2023/02/20 05:30:23;;;;;;;8.00;3.70;;;;;;;12.33;50.37;99778.41;6978106;28;20210;-83
2023/02/20 05:33:45;;;;;;;10.20;3.90;;;;;;;12.72;50.40;99848.31;6978375;28;20301;-83
2023/02/20 05:37:06;;;;;;;5.37;3.73;;;;;;;12.08;51.47;99803.28;6982328;28;20324;-83
2023/02/20 05:40:28;;;;;;;5.60;3.30;;;;;;;12.36;50.85;99818.63;6983631;28;20324;-83
2023/02/20 05:43:53;;;;;;;4.07;3.60;;;;;;;12.31;51.31;99834.56;6982482;28;20254;-83
2023/02/20 05:47:15;;;;;;;11.00;4.30;;;;;;;11.61;52.80;99836.19;6980953;28;20252;-81
2023/02/20 05:50:36;;;;;;;5.60;3.60;;;;;;;11.68;52.64;99837.09;6981746;28;20234;-85
2023/02/20 05:53:58;;;;;;;5.80;3.60;;;;;;;11.73;52.54;99850.88;6980897;28;20293;-85
2023/02/20 05:57:19;;;;;;;6.93;3.77;;;;;;;11.21;53.61;99846.56;6979698;28;20317;-83
2023/02/20 06:00:42;;;;;;;8.23;4.77;;;;;;;10.70;53.63;99739.44;6977779;28;20222;-81
2023/02/20 06:04:04;;;;;;;8.33;4.83;;;;;;;11.18;54.15;99846.91;6989741;28;20263;-82
2023/02/20 06:07:25;;;;;;;7.87;3.90;;;;;;;11.37;53.51;99838.25;6992657;28;20234;-81
2023/02/20 06:10:47;;;;;;;10.90;4.57;;;;;;;11.13;53.87;99831.28;7005720;28;20831;-82
2023/02/20 06:14:08;;;;;;;8.03;4.00;;;;;;;10.71;55.14;99849.00;7004190;28;20265;-82
2023/02/20 06:17:33;;;;;;;7.93;4.27;;;;;;;11.00;54.45;99846.41;6993259;28;20312;-83
2023/02/20 06:20:54;;;;;;;7.57;3.93;;;;;;;11.04;54.29;99861.22;7000744;28;20225;-82
2023/02/20 06:24:16;;;;;;;6.67;3.77;;;;;;;10.86;54.93;99847.22;7006119;28;20229;-82
2023/02/20 06:27:38;;;;;;;7.90;4.20;;;;;;;10.75;55.04;99859.25;6989929;28;20310;-82
2023/02/20 06:31:00;;;;;;;7.37;3.63;;;;;;;10.85;54.84;99849.06;6980369;28;20289;-82
2023/02/20 06:34:24;;;;;;;8.47;3.77;;;;;;;10.54;55.38;99837.53;6977241;28;20297;-81
2023/02/20 06:37:46;;;;;;;5.00;3.90;;;;;;;10.44;56.25;99863.88;6996196;28;20222;-82
2023/02/20 06:41:07;;;;;;;6.30;4.33;;;;;;;10.93;55.15;99850.84;7004094;28;20286;-82
2023/02/20 06:44:29;;;;;;;8.53;3.97;;;;;;;11.02;54.89;99849.75;7006306;28;20210;-81
2023/02/20 06:47:50;;;;;;;5.90;4.43;;;;;;;10.74;55.97;99856.75;7005034;28;20233;-82
2023/02/20 06:51:16;;;;;;;9.73;4.43;;;;;;;11.29;54.70;99866.22;7008430;28;20294;-82
2023/02/20 06:54:37;;;;;;;10.83;4.33;;;;;;;11.29;54.23;99820.31;7013578;28;20297;-81
2023/02/20 06:57:59;;;;;;;4.37;3.97;;;;;;;11.70;53.25;99831.50;7011829;28;20302;-81
2023/02/20 07:01:22;;;;;;;5.83;3.70;;;;;;;12.14;52.49;99867.41;7009678;28;20311;-81
2023/02/20 07:04:47;;;;;;;7.37;4.03;;;;;;;12.21;51.71;99874.59;7009179;28;20205;-83
2023/02/20 07:08:10;;;;;;;6.30;3.60;;;;;;;11.90;52.18;99835.31;7007525;28;20230;-82
2023/02/20 07:11:32;;;;;;;5.77;4.03;;;;;;;11.84;52.84;99868.47;6993584;28;20210;-81
2023/02/20 07:14:53;;;;;;;5.40;3.63;;;;;;;11.88;52.59;99867.09;6991643;28;20341;-81
2023/02/20 07:18:16;;;;;;;8.73;5.20;;;;;;;12.03;51.74;99844.41;6994076;28;20304;-82
2023/02/20 07:21:37;;;;;;;4.80;3.50;;;;;;;12.21;51.40;99862.97;6979498;28;20309;-82
2023/02/20 07:25:00;;;;;;;7.93;3.60;;;;;;;12.90;50.05;99863.06;6984199;28;20278;-82
2023/02/20 07:28:22;;;;;;;5.93;3.70;;;;;;;13.15;49.03;99875.19;6989408;28;20778;-82
2023/02/20 07:31:43;;;;;;;5.57;3.43;;;;;;;13.34;48.12;99863.66;7005205;28;20297;-83
2023/02/20 07:35:05;;;;;;;5.83;3.37;;;;;;;13.90;47.05;99884.28;6977514;28;20590;-82
2023/02/20 07:38:27;;;;;;;6.90;3.33;;;;;;;13.32;48.34;99884.72;6988175;28;20328;-82
2023/02/20 07:41:50;;;;;;;5.03;3.30;;;;;;;13.89;46.82;99885.31;6975991;28;20319;-81
2023/02/20 07:45:12;;;;;;;5.20;3.30;;;;;;;13.71;47.09;99876.88;6976828;28;20274;-81
2023/02/20 07:48:35;;;;;;;7.20;3.57;;;;;;;13.74;46.99;99878.34;6976079;28;20313;-81
2023/02/20 07:51:57;;;;;;;4.27;3.40;;;;;;;14.12;45.62;99847.88;6987462;28;20924;-81
2023/02/20 07:55:19;;;;;;;5.10;3.30;;;;;;;14.24;46.03;99867.16;6983943;28;20192;-81
2023/02/20 07:58:42;;;;;;;11.20;3.70;;;;;;;14.26;45.71;99862.34;7002764;28;20288;-82
2023/02/20 08:02:03;;;;;;;6.73;3.57;;;;;;;14.40;45.09;99856.75;7003349;28;20227;-82
2023/02/20 08:05:25;;;;;;;5.97;3.43;;;;;;;14.72;44.69;99838.91;7003740;28;20235;-83
2023/02/20 08:08:50;;;;;;;5.80;3.30;;;;;;;15.09;43.46;99836.41;7003679;28;20280;-82
2023/02/20 08:12:11;;;;;;;5.73;3.17;;;;;;;14.61;43.90;99853.06;7003772;28;20216;-82
2023/02/20 08:15:34;;;;;;;5.27;3.10;;;;;;;15.47;42.86;99851.09;7002886;28;20241;-81
2023/02/20 08:18:55;;;;;;;7.73;2.73;;;;;;;15.32;42.84;99844.13;7003414;28;20267;-81
2023/02/20 08:22:17;;;;;;;6.80;3.20;;;;;;;16.06;40.97;99840.03;7003897;28;20830;-81
2023/02/20 08:25:38;;;;;;;6.07;2.97;;;;;;;15.41;42.10;99841.06;7003575;28;20301;-81
2023/02/20 08:29:00;;;;;;;6.83;3.50;;;;;;;15.56;41.89;99819.03;7003661;28;20323;-81
2023/02/20 08:32:23;;;;;;;4.10;3.03;;;;;;;16.65;39.83;99822.41;7003206;28;20299;-81
2023/02/20 08:35:47;;;;;;;5.03;3.20;;;;;;;15.83;41.03;99820.66;7003357;28;20201;-83
2023/02/20 08:39:08;;;;;;;7.80;3.67;;;;;;;15.67;41.15;99810.25;7002622;28;20711;-81
2023/02/20 08:42:30;;;;;;;4.93;2.90;;;;;;;17.29;39.10;99822.94;7001249;28;20335;-82
2023/02/20 08:45:52;;;;;;;8.80;3.17;;;;;;;18.93;35.52;99818.00;7002219;28;20221;-82
2023/02/20 08:49:16;;;;;;;3.90;2.50;;;;;;;19.10;34.77;99791.66;7002431;28;20316;-84
2023/02/20 08:52:38;;;;;;;7.37;3.37;;;;;;;20.67;32.50;99802.00;6989092;28;20219;-85
2023/02/20 08:55:59;;;;;;;4.80;2.80;;;;;;;21.58;31.00;99785.19;6974878;28;20300;-83
2023/02/20 08:59:21;;;;;;;6.40;3.37;;;;;;;22.55;29.61;99803.56;6998045;28;20281;-82
2023/02/20 09:02:43;;;;;;;5.70;2.67;;;;;;;22.51;29.17;99806.00;7009727;28;20250;-81
2023/02/20 09:06:06;;;;;;;6.90;3.10;;;;;;;22.09;30.14;99817.81;7005149;28;20700;-81
2023/02/20 09:09:29;;;;;;;5.30;3.10;;;;;;;21.77;30.43;99805.84;7005433;28;20228;-83
2023/02/20 09:12:50;;;;;;;6.03;3.37;;;;;;;22.62;27.95;99804.19;7005215;28;20207;-82
2023/02/20 09:16:12;;;;;;;3.77;2.90;;;;;;;23.18;28.13;99785.25;7004374;28;20280;-83
2023/02/20 09:19:33;;;;;;;5.27;2.80;;;;;;;20.71;31.45;99769.50;6997971;28;20372;-80
2023/02/20 09:22:59;;;;;;;8.43;3.00;;;;;;;21.20;30.92;99790.66;6989904;28;20835;-84
2023/02/20 09:26:21;;;;;;;3.37;2.60;;;;;;;20.16;32.11;99782.09;6993330;28;20699;-82
2023/02/20 09:29:43;;;;;;;8.63;3.13;;;;;;;19.58;33.59;99784.09;7004314;28;20255;-82
2023/02/20 09:33:04;;;;;;;2.73;2.47;;;;;;;18.25;35.55;99789.38;7004908;28;20205;-82
2023/02/20 09:36:26;;;;;;;3.40;2.80;;;;;;;18.03;35.93;99769.06;7006497;28;20296;-82
2023/02/20 09:39:49;;;;;;;6.07;2.83;;;;;;;18.88;35.26;99776.06;7006047;28;20714;-82
2023/02/20 09:43:22;;;;;;;5.43;2.90;;;;;;;18.38;35.17;99742.78;7002739;28;20253;-82
2023/02/20 09:46:45;;;;;;;4.43;2.50;;;;;;;18.35;36.29;99778.72;7003724;28;20274;-82
2023/02/20 09:50:14;;;;;;;9.10;3.17;;;;;;;18.21;35.93;99724.53;7003810;28;20205;-83
2023/02/20 09:53:39;;;;;;;5.20;2.70;;;;;;;17.98;35.70;99754.47;7003722;28;20607;-81
2023/02/20 09:57:03;;;;;;;4.87;2.60;;;;;;;18.36;36.03;99768.66;7004623;28;20221;-83
2023/02/20 10:00:29;;;;;;;3.10;2.80;;;;;;;18.68;35.37;99754.50;7004312;28;20213;-83
2023/02/20 10:03:55;;;;;;;8.30;3.47;;;;;;;18.00;37.34;99750.44;7004121;28;20347;-82
2023/02/20 10:07:23;;;;;;;5.70;2.50;;;;;;;18.10;36.62;99763.53;7005779;28;20387;-82
2023/02/20 10:10:45;;;;;;;5.37;2.70;;;;;;;18.63;36.30;99748.91;7004230;28;20197;-81
2023/02/20 10:14:19;;;;;;;4.47;2.70;;;;;;;18.36;35.90;99746.81;6999826;28;20281;-81
2023/02/20 10:17:50;;;;;;;3.47;2.30;;;;;;;18.14;36.34;99751.94;6992691;28;20363;-81
2023/02/20 10:21:16;;;;;;;7.60;2.73;;;;;;;18.25;36.28;99739.38;6985133;28;20305;-82
2023/02/20 10:24:52;;;;;;;5.27;2.83;;;;;;;17.92;36.32;99685.25;6981295;28;20666;-82
2023/02/20 10:28:17;;;;;;;5.37;2.30;;;;;;;18.40;35.59;99740.66;6983122;28;20225;-87
2023/02/20 10:31:44;;;;;;;4.47;2.07;;;;;;;18.93;34.91;99733.28;6981091;28;20347;-82
2023/02/20 10:35:08;;;;;;;9.33;3.07;;;;;;;19.39;34.18;99729.78;6981184;28;20293;-83
2023/02/20 10:38:35;;;;;;;15.10;6.23;;;;;;;19.14;34.78;99732.72;7001752;28;20286;-85
2023/02/20 10:42:01;;;;;;;4.67;2.43;;;;;;;18.73;34.70;99685.50;7009414;28;20217;-83
2023/02/20 10:45:27;;;;;;;8.50;2.43;;;;;;;18.33;35.13;99720.81;7009196;28;20275;-82
2023/02/20 10:48:50;;;;;;;4.73;2.57;;;;;;;18.82;35.04;99725.09;7004398;28;20258;-83
2023/02/20 10:52:15;;;;;;;7.03;2.70;;;;;;;18.32;36.06;99730.06;7006773;28;20290;-81
2023/02/20 10:55:40;;;;;;;4.53;2.50;;;;;;;18.19;35.36;99723.91;7007261;28;20252;-82
2023/02/20 10:59:05;;;;;;;6.70;2.40;;;;;;;18.73;35.70;99716.41;7007057;28;20294;-88
2023/02/20 11:02:29;;;;;;;5.23;2.80;;;;;;;18.79;35.32;99710.00;7006683;28;20368;-84
2023/02/20 11:05:54;;;;;;;6.90;2.47;;;;;;;18.48;35.10;99688.44;7006785;28;20231;-79
2023/02/20 11:09:16;;;;;;;3.17;2.60;;;;;;;19.25;34.28;99709.19;6989504;28;20272;-80
2023/02/20 11:12:41;;;;;;;4.80;2.20;;;;;;;18.84;34.51;99701.06;7005969;28;20577;-80
2023/02/20 11:16:03;;;;;;;6.07;2.87;;;;;;;19.00;33.79;99692.19;7005310;28;20347;-81
2023/02/20 11:19:28;;;;;;;3.13;2.10;;;;;;;19.51;33.65;99700.50;7005898;28;20363;-80
2023/02/20 11:22:51;;;;;;;4.37;2.33;;;;;;;18.66;34.71;99676.59;7005652;28;20213;-80
2023/02/20 11:26:31;;;;;;;4.30;2.50;;;;;;;19.48;33.46;99677.19;7005035;28;20245;-80
2023/02/20 11:29:55;;;;;;;3.53;2.30;;;;;;;19.83;32.85;99672.44;7005649;28;20229;-80
2023/02/20 11:33:18;;;;;;;2.50;2.20;;;;;;;20.22;32.66;99670.78;7005071;28;20636;-79
2023/02/20 11:36:44;;;;;;;6.43;2.30;;;;;;;19.43;33.38;99657.94;7004534;28;20336;-80
2023/02/20 11:40:15;;;;;;;5.67;2.53;;;;;;;19.59;33.18;99659.94;7004223;28;20213;-81
2023/02/20 11:43:38;;;;;;;3.93;2.30;;;;;;;20.42;32.31;99658.25;6979292;28;20772;-81
2023/02/20 11:47:26;;;;;;;5.47;2.20;;;;;;;20.45;32.18;99651.47;6983776;28;20226;-81
2023/02/20 11:50:49;;;;;;;5.17;2.07;;;;;;;20.22;31.91;99646.13;6978101;28;20211;-81
2023/02/20 11:54:14;;;;;;;5.50;2.87;;;;;;;19.94;33.08;99641.44;6978408;28;20792;-81
2023/02/20 11:57:42;;;;;;;4.70;2.10;;;;;;;20.53;32.10;99631.84;6978165;28;20254;-81
2023/02/20 12:01:04;;;;;;;2.73;1.90;;;;;;;20.22;32.05;99637.91;6979162;28;20701;-81
2023/02/20 12:04:25;;;;;;;6.00;2.60;;;;;;;20.17;32.23;99632.34;7005980;28;20340;-81
2023/02/20 12:07:58;;;;;;;2.70;1.97;;;;;;;20.15;32.92;99626.25;7005192;28;20316;-81
2023/02/20 12:11:22;;;;;;;3.10;1.97;;;;;;;20.18;32.29;99623.88;7005974;28;20549;-81
2023/02/20 12:14:45;;;;;;;4.97;2.50;;;;;;;20.26;32.07;99612.50;7005133;28;20296;-81
2023/02/20 12:18:36;;;;;;;5.10;1.83;;;;;;;20.21;32.29;99595.97;7004954;28;20225;-81
2023/02/20 12:22:02;;;;;;;3.00;2.00;;;;;;;19.89;32.96;99583.88;7003457;28;20320;-84
2023/02/20 12:25:27;;;;;;;5.90;2.03;;;;;;;19.56;33.37;99582.94;7005341;28;20277;-84
2023/02/20 12:28:56;;;;;;;4.50;2.40;;;;;;;20.27;32.90;99564.06;7004373;28;20770;-84
2023/02/20 12:32:32;;;;;;;3.87;2.17;;;;;;;21.22;31.28;99551.78;7005070;28;20204;-82
2023/02/20 12:35:58;;;;;;;5.20;2.30;;;;;;;21.21;31.21;99556.41;6992647;28;20281;-82
2023/02/20 12:39:27;;;;;;;4.00;2.03;;;;;;;20.69;31.50;99562.53;7003877;28;20677;-84
2023/02/20 12:42:53;;;;;;;7.70;2.30;;;;;;;21.17;31.14;99530.56;7002991;28;20689;-83
2023/02/20 12:46:17;;;;;;;3.13;2.00;;;;;;;21.07;31.68;99524.97;7002506;28;20213;-84
2023/02/20 12:49:53;;;;;;;7.23;3.10;;;;;;;21.37;30.24;99533.56;7004169;28;20312;-83
2023/02/20 12:53:33;;;;;;;3.63;2.10;;;;;;;21.45;30.54;99513.91;6988009;28;20210;-83
2023/02/20 12:57:05;;;;;;;3.63;2.00;;;;;;;20.95;30.80;99526.16;6975946;28;20207;-83
2023/02/20 13:00:33;;;;;;;3.80;1.90;;;;;;;21.28;30.21;99514.00;6976383;28;20337;-82
2023/02/20 13:04:03;;;;;;;4.23;2.23;;;;;;;20.83;30.45;99504.34;7000164;28;20225;-83
2023/02/20 13:07:28;;;;;;;5.30;2.37;;;;;;;20.69;30.73;99472.88;7003988;28;20700;-84
2023/02/20 13:10:55;;;;;;;4.90;2.23;;;;;;;21.06;31.34;99508.78;7004076;28;20206;-84
2023/02/20 13:14:28;;;;;;;2.10;1.90;;;;;;;21.33;30.90;99489.38;6999001;28;20218;-84
2023/02/20 13:17:52;;;;;;;5.50;2.50;;;;;;;21.20;31.10;99494.41;6989911;28;20367;-83
2023/02/20 13:21:16;;;;;;;3.93;1.93;;;;;;;21.57;30.07;99481.63;7005012;28;20266;-83
2023/02/20 13:24:40;;;;;;;3.67;1.90;;;;;;;20.92;31.21;99458.16;7002133;28;20273;-82
2023/02/20 13:28:03;;;;;;;5.37;2.33;;;;;;;21.52;30.19;99426.69;6989758;28;20230;-84
2023/02/20 13:31:42;;;;;;;3.80;1.93;;;;;;;21.60;30.44;99461.91;6986201;28;20348;-83
2023/02/20 13:35:35;;;;;;;2.63;2.00;;;;;;;21.28;30.31;99453.63;7001676;28;20252;-83
2023/02/20 13:39:27;;;;;;;6.10;2.00;;;;;;;21.37;30.24;99441.09;6999205;28;20251;-83
2023/02/20 13:43:20;;;;;;;2.53;1.93;;;;;;;22.30;28.99;99419.38;7004790;28;20261;-83
2023/02/20 13:46:57;;;;;;;4.50;2.53;;;;;;;21.92;28.85;99405.94;7003898;28;20213;-84
2023/02/20 13:50:35;;;;;;;3.60;2.20;;;;;;;21.86;28.63;99395.19;7005295;28;20293;-82
2023/02/20 13:54:00;;;;;;;4.07;2.13;;;;;;;21.68;28.94;99387.34;7005629;28;20252;-82
2023/02/20 13:57:22;;;;;;;3.47;1.80;;;;;;;21.54;28.93;99399.84;7002615;28;20692;-83
2023/02/20 14:00:51;;;;;;;3.47;1.70;;;;;;;21.52;29.32;99389.13;7006646;28;20266;-83
2023/02/20 14:04:20;;;;;;;5.10;1.80;;;;;;;21.53;28.87;99389.97;7004105;28;20221;-83
2023/02/20 14:07:45;;;;;;;2.03;1.50;;;;;;;21.54;28.81;99375.97;7005395;28;20297;-83
2023/02/20 14:11:08;;;;;;;3.60;1.70;;;;;;;21.54;28.81;99381.44;6985734;28;20295;-83
2023/02/20 14:14:31;;;;;;;2.27;1.70;;;;;;;21.33;28.70;99354.09;6981431;28;20690;-82
2023/02/20 14:17:54;;;;;;;3.97;1.80;;;;;;;21.18;28.28;99375.91;6992869;28;20234;-82
2023/02/20 14:21:18;;;;;;;2.63;1.70;;;;;;;21.66;27.47;99357.38;7008797;28;20297;-83
2023/02/20 14:24:39;;;;;;;2.20;1.80;;;;;;;21.54;28.25;99373.22;7009325;28;20590;-83
2023/02/20 14:28:07;;;;;;;5.80;2.30;;;;;;;21.18;27.38;99373.97;7008717;28;20359;-84
2023/02/20 14:31:32;;;;;;;4.30;1.60;;;;;;;21.39;27.06;99375.84;7009597;28;20296;-83
2023/02/20 14:35:01;;;;;;;1.43;1.33;;;;;;;21.17;27.19;99366.00;7010221;28;20219;-83
2023/02/20 14:38:31;;;;;;;1.47;1.30;;;;;;;21.24;27.24;99363.91;7008532;28;20259;-83
2023/02/20 14:41:55;;;;;;;3.07;2.30;;;;;;;21.48;26.37;99329.53;7007413;28;20601;-83
2023/02/20 14:45:20;;;;;;;5.40;1.67;;;;;;;20.46;29.57;99352.56;7003126;28;20203;-83
2023/02/20 14:48:41;;;;;;;3.30;1.73;;;;;;;20.78;29.74;99364.47;6997941;28;20263;-83
2023/02/20 14:52:19;;;;;;;4.37;1.63;;;;;;;20.65;29.86;99369.53;6981800;28;20341;-82
2023/02/20 14:55:40;;;;;;;4.30;2.03;;;;;;;20.15;30.42;99314.94;6983952;28;20285;-83
2023/02/20 14:59:16;;;;;;;3.93;1.80;;;;;;;20.81;30.33;99344.75;6980911;28;20323;-83
2023/02/20 15:02:41;;;;;;;2.17;1.80;;;;;;;21.02;29.98;99344.75;6987233;28;20313;-84
2023/02/20 15:06:04;;;;;;;4.10;2.10;;;;;;;20.86;29.60;99341.28;7007904;28;20208;-83
2023/02/20 15:09:35;;;;;;;2.00;1.80;;;;;;;20.69;29.16;99329.56;7008043;28;20273;-83
2023/02/20 15:12:57;;;;;;;3.43;1.57;;;;;;;20.64;29.45;99330.31;7010202;28;20218;-83
2023/02/20 15:16:22;;;;;;;4.30;1.73;;;;;;;20.37;29.11;99339.59;7008462;28;20209;-85
2023/02/20 15:19:44;;;;;;;4.63;1.90;;;;;;;20.16;28.87;99333.00;7008415;28;20536;-83
2023/02/20 15:23:10;;;;;;;1.93;1.63;;;;;;;20.64;28.40;99329.50;7007444;28;20223;-83
2023/02/20 15:26:34;;;;;;;5.50;2.20;;;;;;;20.40;28.69;99331.69;7018092;28;20262;-84
2023/02/20 15:30:12;;;;;;;1.43;1.33;;;;;;;20.19;28.04;99348.13;7011882;28;20218;-84
2023/02/20 15:33:35;;;;;;;1.73;1.57;;;;;;;20.17;28.53;99351.09;7008192;28;20282;-84
2023/02/20 15:36:57;;;;;;;4.00;2.00;;;;;;;20.30;28.70;99349.91;7007242;28;20267;-85
2023/02/20 15:40:22;;;;;;;4.40;1.80;;;;;;;19.37;29.41;99311.56;7008291;28;20732;-84
2023/02/20 15:43:45;;;;;;;2.00;1.47;;;;;;;19.79;29.43;99329.19;7007363;28;20293;-83
2023/02/20 15:47:07;;;;;;;2.07;1.63;;;;;;;19.55;29.91;99319.53;7005536;28;20241;-83
2023/02/20 15:50:28;;;;;;;5.60;1.90;;;;;;;19.53;30.29;99334.53;7007390;28;20572;-84
2023/02/20 15:53:51;;;;;;;4.97;1.77;;;;;;;19.31;29.92;99320.78;7005537;28;20202;-84
2023/02/20 15:57:16;;;;;;;1.80;1.60;;;;;;;19.58;30.11;99315.44;6980815;28;20366;-84
2023/02/20 16:00:39;;;;;;;3.43;1.60;;;;;;;19.84;29.90;99339.38;6995212;28;20204;-84
2023/02/20 16:04:00;;;;;;;2.80;1.83;;;;;;;19.81;29.94;99328.94;7003891;28;20767;-84
2023/02/20 16:07:22;;;;;;;2.53;1.97;;;;;;;19.89;29.93;99323.03;6994377;28;20244;-83
2023/02/20 16:10:44;;;;;;;2.77;1.80;;;;;;;19.58;30.43;99329.13;6998270;28;20266;-84
2023/02/20 16:14:05;;;;;;;5.47;2.30;;;;;;;19.41;31.46;99340.06;6984949;28;20340;-81
2023/02/20 16:17:32;;;;;;;4.43;2.00;;;;;;;19.28;31.27;99298.56;6979834;28;20305;-81
2023/02/20 16:20:54;;;;;;;10.97;4.73;;;;;;;19.68;31.41;99341.06;6977627;28;20202;-82